Time;durP1;ratioP1;P1;durP2;ratioP2;P2;SDS_P1;SDS_P2;PMS_P1;PMS_P2;Temp;Humidity;BMP_temperature;BMP_pressure;BME280_temperature;BME280_humidity;BME280_pressure;Samples;Min_cycle;Max_cycle;Signal;HPM_P1;HPM_P2
2021/01/08 00:02:09;;;;;;;12.80;7.83;;;1.30;99.90;;;;;;5064160;28;20725;-76
2021/01/08 00:04:34;;;;;;;13.23;7.70;;;1.30;99.90;;;;;;5044245;28;20197;-77
2021/01/08 00:07:00;;;;;;;11.60;6.93;;;1.30;99.90;;;;;;5062529;28;20192;-77
2021/01/08 00:09:25;;;;;;;11.70;7.53;;;1.30;99.90;;;;;;5064051;28;20195;-77
2021/01/08 00:11:55;;;;;;;10.23;6.73;;;1.30;99.90;;;;;;5061509;28;20199;-77
2021/01/08 00:14:21;;;;;;;9.83;6.13;;;1.30;99.90;;;;;;5064232;28;20205;-77
2021/01/08 00:16:46;;;;;;;10.70;6.67;;;1.30;99.90;;;;;;5043353;28;20482;-77
2021/01/08 00:19:13;;;;;;;9.07;5.83;;;1.30;99.90;;;;;;5064635;28;20413;-77
2021/01/08 00:21:43;;;;;;;11.90;7.50;;;1.30;99.90;;;;;;5062160;28;20293;-77
2021/01/08 00:24:15;;;;;;;14.53;7.00;;;1.30;99.90;;;;;;5064335;28;20452;-77
2021/01/08 00:26:41;;;;;;;9.70;7.40;;;1.30;99.90;;;;;;5061642;28;20407;-77
2021/01/08 00:29:08;;;;;;;8.73;6.40;;;1.30;99.90;;;;;;5063738;28;20421;-77
2021/01/08 00:31:38;;;;;;;9.57;7.20;;;1.30;99.90;;;;;;5062588;28;20405;-77
2021/01/08 00:34:05;;;;;;;12.03;7.73;;;1.20;99.90;;;;;;5045367;28;20424;-78
2021/01/08 00:36:31;;;;;;;12.20;8.20;;;1.30;99.90;;;;;;5062451;28;20398;-77
2021/01/08 00:38:57;;;;;;;11.27;7.70;;;1.30;99.90;;;;;;5062073;28;20396;-77
2021/01/08 00:41:36;;;;;;;11.73;7.30;;;1.30;99.90;;;;;;5064853;28;20428;-77
2021/01/08 00:44:02;;;;;;;10.17;6.90;;;1.30;99.90;;;;;;5045036;28;20223;-77
2021/01/08 00:46:32;;;;;;;14.10;7.50;;;1.30;99.90;;;;;;5045891;28;20395;-77
2021/01/08 00:48:58;;;;;;;11.60;6.30;;;1.30;99.90;;;;;;5062935;28;20773;-77
2021/01/08 00:51:24;;;;;;;9.23;5.93;;;1.30;99.90;;;;;;5046229;28;20402;-77
2021/01/08 00:53:50;;;;;;;8.33;5.60;;;1.30;99.90;;;;;;5061462;28;20237;-77
2021/01/08 00:56:19;;;;;;;7.80;6.00;;;1.30;99.90;;;;;;5064140;28;20471;-77
2021/01/08 00:58:45;;;;;;;10.10;6.60;;;1.30;99.90;;;;;;5039300;28;20643;-77
2021/01/08 01:01:11;;;;;;;8.57;6.30;;;1.30;99.90;;;;;;5063921;28;20804;-77
2021/01/08 01:03:36;;;;;;;10.70;6.67;;;1.30;99.90;;;;;;5043581;28;20467;-77
2021/01/08 01:06:02;;;;;;;11.00;6.70;;;1.40;99.90;;;;;;5044343;28;20187;-77
2021/01/08 01:08:27;;;;;;;11.27;7.50;;;1.40;99.90;;;;;;5062843;28;20185;-77
2021/01/08 01:10:53;;;;;;;8.03;5.70;;;1.40;99.90;;;;;;5061214;28;20193;-77
2021/01/08 01:13:18;;;;;;;8.40;6.50;;;1.40;99.90;;;;;;5063775;28;20237;-77
2021/01/08 01:15:44;;;;;;;10.70;6.73;;;1.40;99.90;;;;;;5059872;28;20552;-77
2021/01/08 01:18:10;;;;;;;8.37;6.37;;;1.40;99.90;;;;;;5062665;28;20197;-77
2021/01/08 01:20:35;;;;;;;12.40;7.77;;;1.40;99.90;;;;;;5043591;28;20193;-77
2021/01/08 01:23:01;;;;;;;10.37;6.97;;;1.30;99.90;;;;;;5061588;28;20883;-77
2021/01/08 01:25:26;;;;;;;9.50;6.13;;;1.30;99.90;;;;;;5062562;28;20265;-78
2021/01/08 01:27:52;;;;;;;12.00;7.77;;;1.30;99.90;;;;;;5042906;28;20206;-77
2021/01/08 01:30:18;;;;;;;8.33;6.10;;;1.30;99.90;;;;;;5063647;28;20956;-77
2021/01/08 01:32:43;;;;;;;8.83;6.20;;;1.20;99.90;;;;;;5056511;28;20182;-76
2021/01/08 01:35:09;;;;;;;12.60;7.40;;;1.20;99.90;;;;;;5064377;28;20456;-77
2021/01/08 01:37:35;;;;;;;13.47;7.37;;;1.20;99.90;;;;;;5062532;28;20216;-77
2021/01/08 01:40:00;;;;;;;11.53;7.40;;;1.10;99.90;;;;;;5063129;28;20419;-77
2021/01/08 01:42:26;;;;;;;14.10;7.80;;;1.00;99.90;;;;;;5062254;28;20211;-77
2021/01/08 01:44:51;;;;;;;11.47;7.33;;;1.00;99.90;;;;;;5059551;28;20200;-77
2021/01/08 01:47:17;;;;;;;11.93;7.60;;;1.00;99.90;;;;;;5044835;28;20610;-77
2021/01/08 01:49:43;;;;;;;11.33;7.03;;;0.90;99.90;;;;;;5059585;28;20569;-77
2021/01/08 01:52:08;;;;;;;9.93;6.67;;;0.80;99.90;;;;;;5044205;28;20192;-76
2021/01/08 01:54:34;;;;;;;12.80;7.27;;;0.80;99.90;;;;;;5042337;28;20578;-76
2021/01/08 01:56:59;;;;;;;7.97;6.47;;;0.70;99.90;;;;;;5060754;28;20183;-77
2021/01/08 01:59:25;;;;;;;11.50;8.00;;;0.60;99.90;;;;;;5054067;28;20558;-77
2021/01/08 02:01:50;;;;;;;11.73;7.20;;;0.60;99.90;;;;;;5056468;28;20188;-77
2021/01/08 02:04:16;;;;;;;12.40;6.80;;;0.50;99.90;;;;;;5040479;28;20242;-77
2021/01/08 02:06:44;;;;;;;11.07;6.93;;;0.50;99.90;;;;;;5057834;28;20186;-76
2021/01/08 02:09:12;;;;;;;8.23;5.90;;;0.50;99.90;;;;;;5053872;28;20493;-77
2021/01/08 02:11:42;;;;;;;13.77;7.60;;;0.40;99.90;;;;;;5043132;28;20416;-77
2021/01/08 02:14:22;;;;;;;9.67;6.10;;;0.50;99.90;;;;;;5041633;28;20950;-77
2021/01/08 02:16:50;;;;;;;18.00;7.23;;;0.50;99.90;;;;;;5054051;28;20411;-76
2021/01/08 02:19:24;;;;;;;10.53;7.13;;;0.50;99.90;;;;;;5035049;28;20891;-77
2021/01/08 02:22:04;;;;;;;12.20;6.53;;;0.50;99.90;;;;;;5055138;28;20469;-77
2021/01/08 02:24:45;;;;;;;10.83;7.17;;;0.50;99.90;;;;;;5060559;28;20810;-77
2021/01/08 02:27:10;;;;;;;10.07;6.20;;;0.50;99.90;;;;;;5056852;28;20429;-77
2021/01/08 02:29:37;;;;;;;9.47;6.00;;;0.50;99.90;;;;;;5042204;28;20785;-76
2021/01/08 02:32:02;;;;;;;10.80;6.60;;;0.50;99.90;;;;;;5059112;28;20607;-77
2021/01/08 02:34:28;;;;;;;11.77;6.80;;;0.50;99.90;;;;;;5057705;28;20453;-77
2021/01/08 02:36:55;;;;;;;13.60;7.30;;;0.60;99.90;;;;;;5042915;28;20230;-77
2021/01/08 02:39:22;;;;;;;11.60;6.73;;;0.50;99.90;;;;;;5057230;28;20402;-77
2021/01/08 02:41:52;;;;;;;8.20;6.40;;;0.60;99.90;;;;;;5059146;28;20423;-77
2021/01/08 02:44:19;;;;;;;10.03;6.23;;;0.60;99.90;;;;;;5050275;28;20485;-77
2021/01/08 02:46:45;;;;;;;12.63;6.67;;;0.60;99.90;;;;;;5055103;28;20905;-77
2021/01/08 02:49:11;;;;;;;11.03;7.10;;;0.70;99.90;;;;;;5057848;28;20439;-77
2021/01/08 02:51:37;;;;;;;10.53;6.23;;;0.70;99.90;;;;;;5059867;28;20521;-78
2021/01/08 02:54:04;;;;;;;15.30;6.63;;;0.70;99.90;;;;;;5041660;28;20218;-77
2021/01/08 02:56:44;;;;;;;10.30;5.90;;;0.70;99.90;;;;;;5057930;28;21006;-77
2021/01/08 02:59:10;;;;;;;7.40;5.67;;;0.70;99.90;;;;;;5041022;28;20890;-77
2021/01/08 03:01:37;;;;;;;11.07;7.30;;;0.70;99.90;;;;;;5063907;28;20425;-77
2021/01/08 03:04:03;;;;;;;11.13;6.77;;;0.70;99.90;;;;;;5057977;28;20910;-77
2021/01/08 03:06:30;;;;;;;9.00;6.30;;;0.70;99.90;;;;;;5063491;28;20401;-77
2021/01/08 03:08:56;;;;;;;9.60;6.30;;;0.70;99.90;;;;;;5059672;28;20428;-77
2021/01/08 03:11:22;;;;;;;9.93;6.57;;;0.70;99.90;;;;;;5060594;28;20428;-76
2021/01/08 03:13:48;;;;;;;10.20;5.20;;;0.60;99.90;;;;;;5065429;28;20451;-77
2021/01/08 03:16:16;;;;;;;6.13;5.43;;;0.60;99.90;;;;;;5057428;28;20199;-76
2021/01/08 03:18:42;;;;;;;8.03;6.07;;;0.70;99.90;;;;;;5061813;28;20451;-76
2021/01/08 03:21:07;;;;;;;10.20;6.63;;;0.70;99.90;;;;;;5060624;28;20450;-76
2021/01/08 03:23:33;;;;;;;7.10;5.20;;;0.70;99.90;;;;;;5063625;28;20206;-77
2021/01/08 03:25:58;;;;;;;6.13;5.20;;;0.70;99.90;;;;;;5058910;28;20678;-77
2021/01/08 03:28:24;;;;;;;6.93;4.70;;;0.60;99.90;;;;;;5063642;28;20246;-77
2021/01/08 03:30:49;;;;;;;6.90;4.53;;;0.70;99.90;;;;;;5043320;28;20220;-76
2021/01/08 03:33:15;;;;;;;7.20;4.70;;;0.70;99.90;;;;;;5061797;28;20267;-77
2021/01/08 03:35:40;;;;;;;6.97;5.03;;;0.70;99.90;;;;;;5061953;28;20273;-77
2021/01/08 03:38:06;;;;;;;7.33;4.67;;;0.70;99.90;;;;;;5056813;28;20243;-77
2021/01/08 03:40:33;;;;;;;8.57;5.00;;;0.60;99.90;;;;;;5045500;28;20581;-77
2021/01/08 03:42:59;;;;;;;10.20;5.47;;;0.60;99.90;;;;;;5060952;28;20210;-77
2021/01/08 03:45:25;;;;;;;12.33;5.80;;;0.60;99.90;;;;;;5062126;28;20958;-76
2021/01/08 03:47:50;;;;;;;10.27;5.10;;;0.60;99.90;;;;;;5063190;28;20510;-77
2021/01/08 03:50:16;;;;;;;5.63;4.70;;;0.60;99.90;;;;;;5059317;28;20200;-77
2021/01/08 03:52:41;;;;;;;8.00;5.50;;;0.60;99.90;;;;;;5041425;28;20244;-76
2021/01/08 03:55:08;;;;;;;7.00;4.47;;;0.70;99.90;;;;;;5063308;28;20230;-77
2021/01/08 03:57:33;;;;;;;6.70;4.53;;;0.70;99.90;;;;;;5062872;28;20189;-76
2021/01/08 03:59:59;;;;;;;5.60;4.07;;;0.70;99.90;;;;;;5059651;28;20494;-77
2021/01/08 04:02:24;;;;;;;8.90;4.97;;;0.70;99.90;;;;;;5061791;28;20214;-77
2021/01/08 04:04:50;;;;;;;7.40;5.03;;;0.70;99.90;;;;;;5060595;28;20682;-76
2021/01/08 04:07:15;;;;;;;7.03;4.60;;;0.70;99.90;;;;;;5064339;28;20280;-77
2021/01/08 04:09:41;;;;;;;5.83;4.63;;;0.70;99.90;;;;;;5052058;28;20221;-77
2021/01/08 04:12:07;;;;;;;5.13;4.63;;;0.70;99.90;;;;;;5061934;28;20666;-77
2021/01/08 04:14:32;;;;;;;6.50;4.80;;;0.70;99.90;;;;;;5057987;28;20215;-77
2021/01/08 04:16:58;;;;;;;8.83;5.73;;;0.70;99.90;;;;;;5062716;28;20653;-77
2021/01/08 04:19:23;;;;;;;5.77;3.90;;;0.70;99.90;;;;;;5040792;28;20182;-77
2021/01/08 04:21:50;;;;;;;6.13;4.30;;;0.70;99.90;;;;;;5059653;28;20184;-77
2021/01/08 04:24:15;;;;;;;6.07;4.37;;;0.70;99.90;;;;;;5056370;28;20208;-77
2021/01/08 04:26:41;;;;;;;5.83;4.50;;;0.60;99.90;;;;;;5044316;28;20444;-77
2021/01/08 04:29:07;;;;;;;10.27;5.13;;;0.70;99.90;;;;;;5061444;28;20717;-76
2021/01/08 04:31:33;;;;;;;5.97;4.23;;;0.70;99.90;;;;;;5059011;28;20730;-76
2021/01/08 04:33:58;;;;;;;5.07;4.30;;;0.70;99.90;;;;;;5059836;28;20470;-77
2021/01/08 04:36:24;;;;;;;7.67;4.00;;;0.70;99.90;;;;;;5060408;28;20245;-77
2021/01/08 04:38:50;;;;;;;9.20;5.67;;;0.70;99.90;;;;;;5042601;28;20716;-77
2021/01/08 04:41:16;;;;;;;5.03;4.40;;;0.70;99.90;;;;;;5059759;28;20193;-77
2021/01/08 04:43:43;;;;;;;5.77;3.97;;;0.70;99.90;;;;;;5061782;28;20236;-77
2021/01/08 04:46:18;;;;;;;7.33;4.50;;;0.70;99.90;;;;;;5059941;28;20851;-76
2021/01/08 04:48:44;;;;;;;6.50;4.30;;;0.70;99.90;;;;;;5054042;28;20402;-77
2021/01/08 04:51:11;;;;;;;7.80;4.40;;;0.70;99.90;;;;;;5044651;28;20458;-77
2021/01/08 04:53:37;;;;;;;7.77;4.70;;;0.70;99.90;;;;;;5057952;28;20214;-77
2021/01/08 04:56:06;;;;;;;5.93;4.50;;;0.70;99.90;;;;;;5043712;28;20776;-77
2021/01/08 04:58:32;;;;;;;4.97;4.03;;;0.80;99.90;;;;;;5059164;28;20439;-76
2021/01/08 05:01:02;;;;;;;7.37;5.03;;;0.80;99.90;;;;;;5062299;28;20421;-76
2021/01/08 05:03:31;;;;;;;4.90;4.40;;;0.70;99.90;;;;;;5058383;28;20471;-77
2021/01/08 05:05:57;;;;;;;7.53;4.80;;;0.70;99.90;;;;;;5062352;28;20507;-77
2021/01/08 05:08:23;;;;;;;6.47;5.10;;;0.80;99.90;;;;;;5042108;28;20433;-77
2021/01/08 05:10:49;;;;;;;6.47;4.33;;;0.80;99.90;;;;;;5058826;28;20489;-77
2021/01/08 05:13:15;;;;;;;9.63;5.53;;;0.70;99.90;;;;;;5058980;28;20245;-76
2021/01/08 05:15:50;;;;;;;7.37;4.90;;;0.70;99.90;;;;;;5059911;28;20497;-77
2021/01/08 05:18:16;;;;;;;6.90;4.33;;;0.70;99.90;;;;;;5055479;28;20756;-76
2021/01/08 05:20:41;;;;;;;6.63;4.70;;;0.60;99.90;;;;;;5058178;28;20423;-77
2021/01/08 05:23:09;;;;;;;8.40;5.03;;;0.70;99.90;;;;;;5061375;28;20212;-76
2021/01/08 05:25:35;;;;;;;9.53;5.03;;;0.60;99.90;;;;;;5058058;28;20185;-77
2021/01/08 05:28:00;;;;;;;7.70;5.50;;;0.70;99.90;;;;;;5061572;28;20419;-76
2021/01/08 05:30:27;;;;;;;8.80;5.07;;;0.70;99.90;;;;;;5059258;28;20672;-77
2021/01/08 05:33:00;;;;;;;6.73;4.90;;;0.70;99.90;;;;;;5062392;28;20215;-77
2021/01/08 05:35:28;;;;;;;7.97;6.37;;;0.70;99.90;;;;;;5055030;28;20514;-77
2021/01/08 05:37:54;;;;;;;7.60;5.07;;;0.80;99.90;;;;;;5044192;28;20433;-76
2021/01/08 05:40:26;;;;;;;6.93;5.00;;;0.70;99.90;;;;;;5057803;28;20496;-76
2021/01/08 05:42:56;;;;;;;6.37;4.77;;;0.70;99.90;;;;;;5056642;28;20460;-77
2021/01/08 05:45:22;;;;;;;9.67;6.13;;;0.70;99.90;;;;;;5061656;28;20422;-76
2021/01/08 05:47:51;;;;;;;6.10;5.27;;;0.70;99.90;;;;;;5057480;28;21400;-77
2021/01/08 05:50:19;;;;;;;7.77;4.93;;;0.70;99.90;;;;;;5051601;28;20436;-77
2021/01/08 05:52:46;;;;;;;10.17;5.80;;;0.70;99.90;;;;;;5062696;28;20499;-76
2021/01/08 05:55:12;;;;;;;7.20;4.90;;;0.70;99.90;;;;;;5041425;28;21040;-76
2021/01/08 05:57:40;;;;;;;6.40;4.37;;;0.70;99.90;;;;;;5057675;28;20442;-76
2021/01/08 06:00:06;;;;;;;7.27;4.77;;;0.70;99.90;;;;;;5060035;28;20419;-77
2021/01/08 06:02:32;;;;;;;8.20;5.40;;;0.70;99.90;;;;;;5059492;28;20454;-76
2021/01/08 06:04:59;;;;;;;8.80;5.40;;;0.70;99.90;;;;;;5058422;28;20451;-76
2021/01/08 06:07:28;;;;;;;6.43;4.83;;;0.70;99.90;;;;;;5056329;28;20472;-76
2021/01/08 06:09:59;;;;;;;8.10;5.00;;;0.70;99.90;;;;;;5053329;28;20460;-77
2021/01/08 06:12:24;;;;;;;7.17;4.33;;;0.70;99.90;;;;;;5058862;28;20499;-77
2021/01/08 06:14:52;;;;;;;10.10;4.97;;;0.70;99.90;;;;;;5060503;28;20446;-76
2021/01/08 06:17:19;;;;;;;11.03;4.50;;;0.70;99.90;;;;;;5062325;28;20650;-77
2021/01/08 06:19:45;;;;;;;8.50;4.93;;;0.80;99.90;;;;;;5036503;28;20450;-77
2021/01/08 06:22:11;;;;;;;10.60;4.60;;;0.80;99.90;;;;;;5061508;28;20477;-76
2021/01/08 06:24:37;;;;;;;6.93;5.40;;;0.90;99.90;;;;;;5041448;28;20829;-76
2021/01/08 06:27:03;;;;;;;4.83;4.03;;;0.90;99.90;;;;;;5060219;28;20170;-77
2021/01/08 06:29:33;;;;;;;11.60;6.13;;;0.90;99.90;;;;;;5040105;28;20739;-77
2021/01/08 06:32:09;;;;;;;6.50;4.37;;;0.90;99.90;;;;;;5057691;28;20468;-77
2021/01/08 06:34:44;;;;;;;9.90;4.47;;;0.90;99.90;;;;;;5054716;28;20428;-77
2021/01/08 06:37:14;;;;;;;9.83;6.10;;;0.90;99.90;;;;;;5062301;28;20742;-77
2021/01/08 06:39:42;;;;;;;6.17;4.87;;;0.90;99.90;;;;;;5065174;28;20455;-77
2021/01/08 06:42:08;;;;;;;6.17;5.30;;;0.90;99.90;;;;;;5060954;28;20520;-77
2021/01/08 06:44:35;;;;;;;8.10;4.70;;;1.00;99.90;;;;;;5046077;28;20468;-76
2021/01/08 06:47:03;;;;;;;4.17;3.80;;;1.00;99.90;;;;;;5062320;28;20455;-76
2021/01/08 06:49:31;;;;;;;7.17;4.60;;;1.00;99.90;;;;;;5043750;28;21026;-77
2021/01/08 06:51:59;;;;;;;5.63;4.70;;;1.00;99.90;;;;;;5063421;28;20446;-77
2021/01/08 06:54:27;;;;;;;6.60;4.10;;;1.00;99.90;;;;;;5060661;28;20599;-76
2021/01/08 06:56:57;;;;;;;4.10;3.60;;;1.00;99.90;;;;;;5061360;28;21749;-77
2021/01/08 06:59:23;;;;;;;5.27;4.33;;;1.00;99.90;;;;;;5065423;28;20394;-78
2021/01/08 07:02:14;;;;;;;5.17;4.50;;;1.00;99.90;;;;;;5044326;28;20416;-77
2021/01/08 07:04:41;;;;;;;6.33;5.00;;;1.00;99.90;;;;;;5061558;28;20748;-73
2021/01/08 07:07:13;;;;;;;5.83;4.20;;;1.10;99.90;;;;;;5063783;28;20410;-74
2021/01/08 07:09:40;;;;;;;4.47;4.07;;;1.20;99.90;;;;;;5041148;28;20503;-75
2021/01/08 07:12:09;;;;;;;6.53;4.67;;;1.20;99.90;;;;;;5045831;28;20925;-74
2021/01/08 07:14:35;;;;;;;4.90;4.40;;;1.20;99.90;;;;;;5042778;28;20446;-75
2021/01/08 07:17:06;;;;;;;6.27;5.60;;;1.20;99.90;;;;;;5057049;28;20502;-74
2021/01/08 07:19:32;;;;;;;5.30;3.57;;;1.30;99.90;;;;;;5060496;28;20514;-74
2021/01/08 07:22:02;;;;;;;3.90;3.60;;;1.30;99.90;;;;;;5063387;28;20906;-74
2021/01/08 07:24:32;;;;;;;5.07;4.30;;;1.30;99.90;;;;;;5061892;28;20778;-73
2021/01/08 07:27:18;;;;;;;4.30;3.30;;;1.30;99.90;;;;;;5041435;28;20511;-74
2021/01/08 07:29:49;;;;;;;4.37;3.50;;;1.30;99.90;;;;;;5061388;28;20473;-74
2021/01/08 07:32:31;;;;;;;3.47;2.90;;;1.40;99.90;;;;;;5061893;28;20425;-74
2021/01/08 07:34:56;;;;;;;5.33;3.20;;;1.40;99.90;;;;;;5056911;28;20547;-74
2021/01/08 07:38:01;;;;;;;4.87;3.47;;;1.40;99.90;;;;;;5058663;28;20537;-74
2021/01/08 07:40:31;;;;;;;5.80;2.77;;;1.40;99.90;;;;;;5060010;28;20258;-74
2021/01/08 07:43:06;;;;;;;2.67;2.40;;;1.40;99.90;;;;;;5061780;28;20460;-74
2021/01/08 07:45:58;;;;;;;8.50;3.70;;;1.40;99.90;;;;;;5062798;28;20488;-74
2021/01/08 07:48:35;;;;;;;4.73;2.90;;;1.50;99.90;;;;;;5043164;28;20508;-74
2021/01/08 07:51:03;;;;;;;3.00;2.53;;;1.50;99.90;;;;;;5062256;28;20888;-74
2021/01/08 07:53:41;;;;;;;10.63;3.30;;;1.50;99.90;;;;;;5059042;28;20500;-75
2021/01/08 07:56:08;;;;;;;3.93;3.40;;;1.50;99.90;;;;;;5061898;28;20425;-74
2021/01/08 07:58:37;;;;;;;3.50;3.20;;;1.50;99.90;;;;;;5059768;28;20450;-75
2021/01/08 08:01:04;;;;;;;3.37;2.93;;;1.60;99.90;;;;;;5061738;28;20412;-74
2021/01/08 08:03:30;;;;;;;3.50;3.13;;;1.60;99.90;;;;;;5060396;28;20465;-74
2021/01/08 08:05:56;;;;;;;3.80;2.97;;;1.60;99.90;;;;;;5062019;28;20453;-74
2021/01/08 08:08:23;;;;;;;3.50;2.83;;;1.60;99.90;;;;;;5059155;28;20904;-74
2021/01/08 08:10:49;;;;;;;5.03;2.87;;;1.60;99.90;;;;;;5061664;28;20171;-74
2021/01/08 08:13:15;;;;;;;3.60;3.03;;;1.70;99.90;;;;;;5060530;28;20860;-74
2021/01/08 08:15:47;;;;;;;2.73;2.53;;;1.70;99.90;;;;;;5063282;28;20229;-74
2021/01/08 08:18:13;;;;;;;4.07;3.23;;;1.70;99.90;;;;;;5057131;28;20438;-74
2021/01/08 08:20:39;;;;;;;2.57;2.13;;;1.70;99.90;;;;;;5057713;28;20438;-74
2021/01/08 08:23:15;;;;;;;5.77;2.93;;;1.70;99.90;;;;;;5061681;28;20457;-74
2021/01/08 08:25:41;;;;;;;4.80;3.40;;;1.70;99.90;;;;;;5058659;28;20185;-73
2021/01/08 08:28:07;;;;;;;5.13;3.40;;;1.70;99.90;;;;;;5060573;28;20402;-74
2021/01/08 08:30:33;;;;;;;3.40;2.50;;;1.70;99.90;;;;;;5062047;28;20793;-73
2021/01/08 08:32:59;;;;;;;2.93;2.70;;;1.70;99.90;;;;;;5057996;28;20488;-74
2021/01/08 08:35:24;;;;;;;3.63;2.67;;;1.70;99.90;;;;;;5058674;28;20631;-74
2021/01/08 08:37:52;;;;;;;2.40;2.20;;;1.70;99.90;;;;;;5059022;28;20184;-74
2021/01/08 08:40:22;;;;;;;2.33;2.03;;;1.70;99.90;;;;;;5056416;28;20209;-74
2021/01/08 08:42:59;;;;;;;3.23;2.67;;;1.70;99.90;;;;;;5056554;28;20461;-73
2021/01/08 08:45:33;;;;;;;6.60;2.70;;;1.60;99.90;;;;;;5056633;28;20437;-73
2021/01/08 08:48:04;;;;;;;3.87;3.30;;;1.60;99.90;;;;;;5058964;28;20811;-74
2021/01/08 08:50:30;;;;;;;3.47;2.80;;;1.60;99.90;;;;;;5058808;28;20459;-73
2021/01/08 08:52:55;;;;;;;3.00;2.70;;;1.60;99.90;;;;;;5062309;28;20476;-73
2021/01/08 08:55:31;;;;;;;2.77;2.57;;;1.60;99.90;;;;;;5057138;28;20238;-74
2021/01/08 08:58:14;;;;;;;3.10;2.53;;;1.50;99.90;;;;;;5060082;28;20587;-74
2021/01/08 09:00:41;;;;;;;4.93;2.97;;;1.60;99.90;;;;;;5059594;28;20443;-74
2021/01/08 09:03:22;;;;;;;3.70;2.60;;;1.60;99.90;;;;;;5060593;28;20461;-74
2021/01/08 09:05:49;;;;;;;3.23;2.57;;;1.60;99.90;;;;;;5036173;28;20431;-73
2021/01/08 09:08:31;;;;;;;4.23;2.83;;;1.70;99.90;;;;;;5052999;28;20437;-74
2021/01/08 09:11:17;;;;;;;2.20;2.00;;;1.70;99.90;;;;;;5058725;28;20470;-74
2021/01/08 09:14:01;;;;;;;3.50;2.60;;;1.70;99.90;;;;;;5062448;28;20416;-73
2021/01/08 09:16:47;;;;;;;5.00;2.87;;;1.70;99.90;;;;;;5056362;28;20439;-74
2021/01/08 09:19:29;;;;;;;3.23;2.87;;;1.80;99.90;;;;;;5039135;28;20530;-74
2021/01/08 09:21:55;;;;;;;7.67;3.10;;;1.80;99.90;;;;;;5054375;28;20406;-73
2021/01/08 09:24:28;;;;;;;7.67;5.00;;;1.80;99.90;;;;;;5059311;28;20439;-74
2021/01/08 09:27:01;;;;;;;6.83;4.00;;;1.80;99.90;;;;;;5056782;28;20924;-73
2021/01/08 09:29:31;;;;;;;7.80;5.10;;;1.80;99.90;;;;;;5057930;28;20468;-74
2021/01/08 09:31:58;;;;;;;4.30;3.37;;;1.80;99.90;;;;;;5061288;28;20415;-74
2021/01/08 09:34:25;;;;;;;5.50;3.97;;;1.80;99.90;;;;;;5055868;28;20424;-74
2021/01/08 09:36:52;;;;;;;8.87;5.47;;;1.80;99.90;;;;;;5062342;28;20784;-73
2021/01/08 09:39:19;;;;;;;5.23;4.03;;;1.80;99.90;;;;;;5053599;28;20877;-73
2021/01/08 09:41:53;;;;;;;3.77;3.37;;;1.90;99.90;;;;;;5062505;28;20442;-73
2021/01/08 09:44:19;;;;;;;3.73;3.17;;;2.00;99.90;;;;;;5054005;28;20987;-73
2021/01/08 09:46:55;;;;;;;3.60;3.30;;;2.00;99.90;;;;;;5059072;28;20425;-73
2021/01/08 09:49:21;;;;;;;7.33;3.30;;;2.00;99.90;;;;;;5051267;28;20188;-73
2021/01/08 09:51:47;;;;;;;5.00;3.20;;;2.10;99.90;;;;;;5060351;28;20446;-74
2021/01/08 09:54:12;;;;;;;4.53;3.60;;;2.20;99.90;;;;;;5057796;28;20864;-74
2021/01/08 09:56:38;;;;;;;5.40;3.90;;;2.20;99.90;;;;;;5061222;28;20206;-74
2021/01/08 09:59:14;;;;;;;3.23;2.93;;;2.30;99.90;;;;;;5042586;28;20181;-73
2021/01/08 10:02:19;;;;;;;6.37;3.77;;;2.30;99.90;;;;;;5057393;28;20187;-73
2021/01/08 10:04:37;;;;;;;3.83;3.53;;;2.30;99.90;;;;;;5051867;28;20530;-74
2021/01/08 10:07:07;;;;;;;4.30;3.80;;;2.40;99.90;;;;;;5055077;28;20504;-73
2021/01/08 10:09:48;;;;;;;4.60;4.17;;;2.50;99.90;;;;;;5054883;28;20222;-73
2021/01/08 10:12:17;;;;;;;4.10;3.00;;;2.50;99.90;;;;;;5061121;28;20438;-73
2021/01/08 10:14:43;;;;;;;3.80;2.80;;;2.60;99.90;;;;;;5067261;28;20450;-73
2021/01/08 10:17:10;;;;;;;2.73;2.00;;;2.60;99.90;;;;;;5063718;28;20863;-73
2021/01/08 10:19:36;;;;;;;4.27;2.63;;;2.50;99.90;;;;;;5060032;28;20223;-73
2021/01/08 10:22:03;;;;;;;2.50;2.10;;;2.40;99.90;;;;;;5064314;28;20437;-73
2021/01/08 10:24:28;;;;;;;2.87;2.60;;;2.50;99.90;;;;;;5058445;28;20642;-72
2021/01/08 10:26:54;;;;;;;5.07;3.67;;;2.50;99.90;;;;;;5065300;28;20507;-73
2021/01/08 10:29:28;;;;;;;4.00;2.90;;;2.40;99.90;;;;;;5061829;28;20185;-73
2021/01/08 10:31:53;;;;;;;3.80;3.30;;;2.40;99.90;;;;;;5060045;28;20174;-74
2021/01/08 10:34:19;;;;;;;4.07;2.83;;;2.40;99.90;;;;;;5060849;28;21017;-73
2021/01/08 10:36:44;;;;;;;4.70;3.53;;;2.40;99.90;;;;;;5059737;28;20185;-73
2021/01/08 10:39:10;;;;;;;3.73;3.40;;;2.40;99.90;;;;;;5064734;28;20676;-73
2021/01/08 10:41:35;;;;;;;7.60;3.33;;;2.40;99.90;;;;;;5060189;28;20177;-73
2021/01/08 10:44:00;;;;;;;4.30;3.37;;;2.40;99.90;;;;;;5064501;28;20214;-73
2021/01/08 10:46:26;;;;;;;4.37;3.57;;;2.40;99.90;;;;;;5059793;28;20178;-73
2021/01/08 10:48:51;;;;;;;4.00;3.37;;;2.40;99.90;;;;;;5062230;28;20272;-73
2021/01/08 10:51:17;;;;;;;4.53;3.50;;;2.40;99.90;;;;;;5060133;28;20185;-73
2021/01/08 10:53:43;;;;;;;3.87;3.40;;;2.40;99.90;;;;;;5065008;28;20227;-73
2021/01/08 10:56:08;;;;;;;5.20;4.50;;;2.50;99.90;;;;;;5062818;28;20284;-73
2021/01/08 10:58:34;;;;;;;4.03;3.50;;;2.50;99.90;;;;;;5042550;28;20656;-72
2021/01/08 11:00:59;;;;;;;6.57;4.00;;;2.60;99.90;;;;;;5064642;28;20264;-73
2021/01/08 11:03:25;;;;;;;4.23;3.83;;;2.70;99.90;;;;;;5061870;28;20208;-73
2021/01/08 11:05:50;;;;;;;4.13;3.57;;;2.70;99.90;;;;;;5054613;28;20180;-73
2021/01/08 11:08:16;;;;;;;6.13;4.27;;;2.70;99.90;;;;;;5059139;28;20268;-74
2021/01/08 11:10:41;;;;;;;5.17;4.00;;;2.70;99.90;;;;;;5064857;28;20181;-73
2021/01/08 11:13:07;;;;;;;3.47;3.10;;;2.70;99.90;;;;;;5044982;28;20291;-73
2021/01/08 11:15:33;;;;;;;4.30;3.90;;;2.70;99.90;;;;;;5059408;28;20211;-72
2021/01/08 11:17:59;;;;;;;5.73;4.50;;;2.80;99.90;;;;;;5064004;28;20721;-72
2021/01/08 11:20:25;;;;;;;5.73;4.20;;;2.80;99.90;;;;;;5059716;28;20193;-72
2021/01/08 11:22:51;;;;;;;10.23;3.67;;;2.80;99.90;;;;;;5059110;28;20885;-72
2021/01/08 11:25:17;;;;;;;4.37;3.40;;;2.70;99.90;;;;;;5055965;28;20202;-73
2021/01/08 11:27:43;;;;;;;4.87;3.40;;;2.70;99.90;;;;;;5063748;28;20673;-72
2021/01/08 11:30:09;;;;;;;4.07;3.67;;;2.70;99.90;;;;;;5063703;28;20182;-72
2021/01/08 11:32:35;;;;;;;4.93;3.70;;;2.80;99.90;;;;;;5058126;28;20437;-72
2021/01/08 11:35:02;;;;;;;3.97;3.20;;;2.80;99.90;;;;;;5059239;28;20482;-73
2021/01/08 11:37:30;;;;;;;5.40;3.53;;;2.70;99.90;;;;;;5062498;28;20185;-73
2021/01/08 11:39:56;;;;;;;3.50;3.20;;;2.70;99.90;;;;;;5061991;28;20426;-73
2021/01/08 11:42:21;;;;;;;6.47;3.90;;;2.80;99.90;;;;;;5059333;28;20437;-72
2021/01/08 11:44:46;;;;;;;3.60;2.87;;;2.80;99.90;;;;;;5061002;28;20208;-74
2021/01/08 11:47:12;;;;;;;5.43;3.17;;;2.80;99.90;;;;;;5045871;28;20548;-74
2021/01/08 11:49:37;;;;;;;3.93;3.60;;;2.70;99.90;;;;;;5059214;28;20177;-73
2021/01/08 11:52:03;;;;;;;4.63;3.03;;;2.70;99.90;;;;;;5061050;28;20181;-73
2021/01/08 11:54:29;;;;;;;5.40;3.43;;;2.60;99.90;;;;;;5061771;28;20213;-74
2021/01/08 11:56:54;;;;;;;2.87;2.57;;;2.60;99.90;;;;;;5059769;28;20488;-74
2021/01/08 11:59:20;;;;;;;9.80;6.10;;;2.60;99.90;;;;;;5059324;28;20188;-73
2021/01/08 12:01:45;;;;;;;13.83;9.00;;;2.60;99.90;;;;;;5061760;28;20186;-74
2021/01/08 12:04:11;;;;;;;7.13;4.57;;;2.60;99.90;;;;;;5060515;28;20217;-75
2021/01/08 12:06:37;;;;;;;4.93;4.40;;;2.60;99.90;;;;;;5057847;28;20602;-74
2021/01/08 12:09:06;;;;;;;10.00;6.70;;;2.60;99.90;;;;;;5036500;28;20192;-74
2021/01/08 12:11:31;;;;;;;6.97;4.43;;;2.50;99.90;;;;;;5053655;28;20216;-74
2021/01/08 12:13:57;;;;;;;4.07;3.60;;;2.50;99.90;;;;;;5057950;28;20463;-74
2021/01/08 12:16:27;;;;;;;5.87;3.87;;;2.50;99.90;;;;;;5059429;28;20193;-74
2021/01/08 12:18:53;;;;;;;5.93;4.27;;;2.40;99.90;;;;;;5053133;28;20178;-75
2021/01/08 12:21:19;;;;;;;4.40;3.80;;;2.40;99.90;;;;;;5050640;28;20494;-74
2021/01/08 12:23:45;;;;;;;3.90;3.50;;;2.30;99.90;;;;;;5059585;28;20477;-73
2021/01/08 12:26:18;;;;;;;4.40;3.73;;;2.20;99.90;;;;;;5053375;28;20771;-74
2021/01/08 12:28:45;;;;;;;7.90;4.93;;;2.30;99.90;;;;;;5058418;28;20172;-74
2021/01/08 12:31:11;;;;;;;3.93;3.63;;;2.30;99.90;;;;;;5061479;28;20454;-74
2021/01/08 12:33:36;;;;;;;4.83;3.47;;;2.30;99.90;;;;;;5058096;28;20459;-74
2021/01/08 12:36:04;;;;;;;5.70;3.83;;;2.30;99.90;;;;;;5042277;28;20312;-74
2021/01/08 12:38:29;;;;;;;5.00;3.50;;;2.30;99.90;;;;;;5062362;28;20179;-74
2021/01/08 12:40:55;;;;;;;5.50;3.73;;;2.20;99.90;;;;;;5055590;28;20442;-74
2021/01/08 12:43:22;;;;;;;5.90;3.17;;;2.20;99.90;;;;;;5045811;28;20693;-74
2021/01/08 12:45:47;;;;;;;7.97;4.50;;;2.20;99.90;;;;;;5038138;28;20666;-74
2021/01/08 12:48:13;;;;;;;3.60;3.30;;;2.30;99.90;;;;;;5058670;28;20479;-74
2021/01/08 12:50:38;;;;;;;6.60;3.67;;;2.30;99.90;;;;;;5054674;28;20533;-74
2021/01/08 12:53:04;;;;;;;5.20;3.50;;;2.30;99.90;;;;;;5059195;28;20315;-75
2021/01/08 12:55:29;;;;;;;6.67;4.20;;;2.40;99.90;;;;;;5059581;28;20674;-74
2021/01/08 12:57:55;;;;;;;6.40;4.20;;;2.40;99.90;;;;;;5034397;28;20181;-74
2021/01/08 13:00:21;;;;;;;5.00;4.23;;;2.40;99.90;;;;;;5063250;28;20266;-75